sensor_id;sensor_type;location;lat;lon;timestamp;P1;durP1;ratioP1;P2;durP2;ratioP2
52650;SDS011;38537;47.226;39.702;2022-07-04T00:01:06;16.42;;;8.18;;
52650;SDS011;38537;47.226;39.702;2022-07-04T00:03:33;12.68;;;7.95;;
52650;SDS011;38537;47.226;39.702;2022-07-04T00:06:01;10.70;;;7.75;;
52650;SDS011;38537;47.226;39.702;2022-07-04T00:08:28;12.93;;;8.55;;
52650;SDS011;38537;47.226;39.702;2022-07-04T00:10:56;12.63;;;8.57;;
52650;SDS011;38537;47.226;39.702;2022-07-04T00:13:23;17.98;;;8.60;;
52650;SDS011;38537;47.226;39.702;2022-07-04T00:15:50;15.40;;;7.95;;
52650;SDS011;38537;47.226;39.702;2022-07-04T00:18:18;13.05;;;7.70;;
52650;SDS011;38537;47.226;39.702;2022-07-04T00:20:45;15.82;;;8.05;;
52650;SDS011;38537;47.226;39.702;2022-07-04T00:23:13;13.45;;;7.93;;
52650;SDS011;38537;47.226;39.702;2022-07-04T00:25:40;14.65;;;8.48;;
52650;SDS011;38537;47.226;39.702;2022-07-04T00:28:08;18.98;;;8.05;;
52650;SDS011;38537;47.226;39.702;2022-07-04T00:30:35;11.82;;;8.05;;
52650;SDS011;38537;47.226;39.702;2022-07-04T00:33:03;12.20;;;8.43;;
52650;SDS011;38537;47.226;39.702;2022-07-04T00:35:30;13.63;;;8.70;;
52650;SDS011;38537;47.226;39.702;2022-07-04T00:37:57;12.10;;;8.23;;
52650;SDS011;38537;47.226;39.702;2022-07-04T00:40:25;12.23;;;8.68;;
52650;SDS011;38537;47.226;39.702;2022-07-04T00:42:52;11.32;;;8.32;;
52650;SDS011;38537;47.226;39.702;2022-07-04T00:45:20;11.65;;;8.57;;
52650;SDS011;38537;47.226;39.702;2022-07-04T00:47:48;12.98;;;8.80;;
52650;SDS011;38537;47.226;39.702;2022-07-04T00:50:15;9.88;;;8.02;;
52650;SDS011;38537;47.226;39.702;2022-07-04T00:52:42;13.73;;;8.00;;
52650;SDS011;38537;47.226;39.702;2022-07-04T00:55:10;13.95;;;8.35;;
52650;SDS011;38537;47.226;39.702;2022-07-04T00:57:37;13.02;;;7.95;;
52650;SDS011;38537;47.226;39.702;2022-07-04T01:00:05;11.98;;;7.88;;
52650;SDS011;38537;47.226;39.702;2022-07-04T01:02:33;14.30;;;8.50;;
52650;SDS011;38537;47.226;39.702;2022-07-04T01:05:00;10.93;;;8.18;;
52650;SDS011;38537;47.226;39.702;2022-07-04T01:07:28;11.82;;;8.35;;
52650;SDS011;38537;47.226;39.702;2022-07-04T01:09:56;11.57;;;8.00;;
52650;SDS011;38537;47.226;39.702;2022-07-04T01:12:30;10.73;;;8.00;;
52650;SDS011;38537;47.226;39.702;2022-07-04T01:14:57;19.77;;;8.73;;
52650;SDS011;38537;47.226;39.702;2022-07-04T01:17:25;14.18;;;8.35;;
52650;SDS011;38537;47.226;39.702;2022-07-04T01:19:52;15.35;;;9.07;;
52650;SDS011;38537;47.226;39.702;2022-07-04T01:22:20;12.73;;;8.55;;
52650;SDS011;38537;47.226;39.702;2022-07-04T01:24:48;13.23;;;8.65;;
52650;SDS011;38537;47.226;39.702;2022-07-04T01:27:16;14.55;;;9.05;;
52650;SDS011;38537;47.226;39.702;2022-07-04T01:29:45;14.38;;;9.48;;
52650;SDS011;38537;47.226;39.702;2022-07-04T01:32:12;17.75;;;9.43;;
52650;SDS011;38537;47.226;39.702;2022-07-04T01:34:40;14.73;;;9.60;;
52650;SDS011;38537;47.226;39.702;2022-07-04T01:37:10;13.93;;;9.23;;
52650;SDS011;38537;47.226;39.702;2022-07-04T01:39:38;15.93;;;9.10;;
52650;SDS011;38537;47.226;39.702;2022-07-04T01:42:05;13.85;;;9.70;;
52650;SDS011;38537;47.226;39.702;2022-07-04T01:44:33;15.45;;;8.98;;
52650;SDS011;38537;47.226;39.702;2022-07-04T01:47:01;15.60;;;9.48;;
52650;SDS011;38537;47.226;39.702;2022-07-04T01:49:29;13.50;;;9.70;;
52650;SDS011;38537;47.226;39.702;2022-07-04T01:51:56;16.95;;;10.02;;
52650;SDS011;38537;47.226;39.702;2022-07-04T01:54:23;17.45;;;10.00;;
52650;SDS011;38537;47.226;39.702;2022-07-04T01:56:53;18.70;;;9.80;;
52650;SDS011;38537;47.226;39.702;2022-07-04T01:59:20;18.40;;;10.02;;
52650;SDS011;38537;47.226;39.702;2022-07-04T02:02:07;17.13;;;10.30;;
52650;SDS011;38537;47.226;39.702;2022-07-04T02:04:37;14.63;;;10.10;;
52650;SDS011;38537;47.226;39.702;2022-07-04T02:07:04;18.02;;;10.68;;
52650;SDS011;38537;47.226;39.702;2022-07-04T02:09:31;17.15;;;10.27;;
52650;SDS011;38537;47.226;39.702;2022-07-04T02:11:59;17.02;;;11.02;;
52650;SDS011;38537;47.226;39.702;2022-07-04T02:14:45;20.05;;;10.77;;
52650;SDS011;38537;47.226;39.702;2022-07-04T02:17:13;18.30;;;10.73;;
52650;SDS011;38537;47.226;39.702;2022-07-04T02:19:41;17.85;;;10.93;;
52650;SDS011;38537;47.226;39.702;2022-07-04T02:22:08;19.73;;;10.23;;
52650;SDS011;38537;47.226;39.702;2022-07-04T02:24:35;16.40;;;10.68;;
52650;SDS011;38537;47.226;39.702;2022-07-04T02:27:03;21.10;;;11.00;;
52650;SDS011;38537;47.226;39.702;2022-07-04T02:29:30;19.77;;;10.57;;
52650;SDS011;38537;47.226;39.702;2022-07-04T02:31:57;17.63;;;10.15;;
52650;SDS011;38537;47.226;39.702;2022-07-04T02:34:25;17.00;;;10.32;;
52650;SDS011;38537;47.226;39.702;2022-07-04T02:36:52;17.50;;;10.43;;
52650;SDS011;38537;47.226;39.702;2022-07-04T02:39:20;15.82;;;10.40;;
52650;SDS011;38537;47.226;39.702;2022-07-04T02:41:47;18.20;;;10.18;;
52650;SDS011;38537;47.226;39.702;2022-07-04T02:44:21;14.52;;;9.50;;
52650;SDS011;38537;47.226;39.702;2022-07-04T02:46:49;17.98;;;9.43;;
52650;SDS011;38537;47.226;39.702;2022-07-04T02:49:16;19.42;;;9.85;;
52650;SDS011;38537;47.226;39.702;2022-07-04T02:51:44;15.63;;;9.75;;
52650;SDS011;38537;47.226;39.702;2022-07-04T02:54:11;15.52;;;9.52;;
52650;SDS011;38537;47.226;39.702;2022-07-04T02:56:38;15.15;;;9.93;;
52650;SDS011;38537;47.226;39.702;2022-07-04T02:59:06;15.55;;;10.38;;
52650;SDS011;38537;47.226;39.702;2022-07-04T03:01:34;16.98;;;10.30;;
52650;SDS011;38537;47.226;39.702;2022-07-04T03:04:01;20.00;;;10.27;;
52650;SDS011;38537;47.226;39.702;2022-07-04T03:06:31;18.83;;;10.50;;
52650;SDS011;38537;47.226;39.702;2022-07-04T03:08:58;20.67;;;10.80;;
52650;SDS011;38537;47.226;39.702;2022-07-04T03:11:25;18.42;;;10.90;;
52650;SDS011;38537;47.226;39.702;2022-07-04T03:13:52;19.33;;;10.60;;
52650;SDS011;38537;47.226;39.702;2022-07-04T03:16:19;19.48;;;10.07;;
52650;SDS011;38537;47.226;39.702;2022-07-04T03:18:47;18.40;;;9.52;;
52650;SDS011;38537;47.226;39.702;2022-07-04T03:21:14;19.63;;;9.45;;
52650;SDS011;38537;47.226;39.702;2022-07-04T03:23:41;14.75;;;9.00;;
52650;SDS011;38537;47.226;39.702;2022-07-04T03:26:09;17.13;;;9.18;;
52650;SDS011;38537;47.226;39.702;2022-07-04T03:28:36;14.90;;;9.48;;
52650;SDS011;38537;47.226;39.702;2022-07-04T03:31:04;16.75;;;8.65;;
52650;SDS011;38537;47.226;39.702;2022-07-04T03:33:31;12.48;;;7.60;;
52650;SDS011;38537;47.226;39.702;2022-07-04T03:35:58;18.40;;;9.40;;
52650;SDS011;38537;47.226;39.702;2022-07-04T03:38:25;13.25;;;8.07;;
52650;SDS011;38537;47.226;39.702;2022-07-04T03:40:53;15.35;;;7.93;;
52650;SDS011;38537;47.226;39.702;2022-07-04T03:43:20;18.98;;;8.40;;
52650;SDS011;38537;47.226;39.702;2022-07-04T03:45:47;15.77;;;8.27;;
52650;SDS011;38537;47.226;39.702;2022-07-04T03:48:14;17.98;;;8.40;;
52650;SDS011;38537;47.226;39.702;2022-07-04T03:50:42;15.48;;;8.10;;
52650;SDS011;38537;47.226;39.702;2022-07-04T03:53:09;17.67;;;7.40;;
52650;SDS011;38537;47.226;39.702;2022-07-04T03:55:36;17.58;;;7.65;;
52650;SDS011;38537;47.226;39.702;2022-07-04T03:58:05;11.40;;;6.95;;
52650;SDS011;38537;47.226;39.702;2022-07-04T04:00:32;10.82;;;6.75;;
52650;SDS011;38537;47.226;39.702;2022-07-04T04:03:00;10.32;;;6.88;;
52650;SDS011;38537;47.226;39.702;2022-07-04T04:05:27;12.48;;;6.43;;
52650;SDS011;38537;47.226;39.702;2022-07-04T04:07:58;11.48;;;6.68;;
52650;SDS011;38537;47.226;39.702;2022-07-04T04:10:28;11.73;;;7.03;;
52650;SDS011;38537;47.226;39.702;2022-07-04T04:12:59;13.75;;;6.85;;
52650;SDS011;38537;47.226;39.702;2022-07-04T04:15:26;10.80;;;6.82;;
52650;SDS011;38537;47.226;39.702;2022-07-04T04:17:54;15.02;;;7.22;;
52650;SDS011;38537;47.226;39.702;2022-07-04T04:20:21;21.30;;;8.10;;
52650;SDS011;38537;47.226;39.702;2022-07-04T04:22:48;15.48;;;7.82;;
52650;SDS011;38537;47.226;39.702;2022-07-04T04:25:17;14.02;;;7.13;;
52650;SDS011;38537;47.226;39.702;2022-07-04T04:27:45;15.20;;;6.63;;
52650;SDS011;38537;47.226;39.702;2022-07-04T04:30:12;12.60;;;6.82;;
52650;SDS011;38537;47.226;39.702;2022-07-04T04:32:39;11.35;;;6.90;;
52650;SDS011;38537;47.226;39.702;2022-07-04T04:35:07;11.82;;;6.70;;
52650;SDS011;38537;47.226;39.702;2022-07-04T04:37:34;14.52;;;7.25;;
52650;SDS011;38537;47.226;39.702;2022-07-04T04:40:02;16.70;;;7.65;;
52650;SDS011;38537;47.226;39.702;2022-07-04T04:42:29;13.98;;;6.90;;
52650;SDS011;38537;47.226;39.702;2022-07-04T04:44:57;13.05;;;6.70;;
52650;SDS011;38537;47.226;39.702;2022-07-04T04:47:24;15.15;;;7.28;;
52650;SDS011;38537;47.226;39.702;2022-07-04T04:49:51;11.88;;;6.78;;
52650;SDS011;38537;47.226;39.702;2022-07-04T04:52:19;10.95;;;6.50;;
52650;SDS011;38537;47.226;39.702;2022-07-04T04:54:46;10.13;;;6.93;;
52650;SDS011;38537;47.226;39.702;2022-07-04T04:57:13;11.98;;;6.63;;
52650;SDS011;38537;47.226;39.702;2022-07-04T04:59:41;12.05;;;6.80;;
52650;SDS011;38537;47.226;39.702;2022-07-04T05:02:08;11.45;;;6.60;;
52650;SDS011;38537;47.226;39.702;2022-07-04T05:04:42;9.38;;;6.43;;
52650;SDS011;38537;47.226;39.702;2022-07-04T05:07:10;11.38;;;6.00;;
52650;SDS011;38537;47.226;39.702;2022-07-04T05:09:37;10.65;;;6.45;;
52650;SDS011;38537;47.226;39.702;2022-07-04T05:12:06;11.45;;;6.40;;
52650;SDS011;38537;47.226;39.702;2022-07-04T05:14:33;13.70;;;6.13;;
52650;SDS011;38537;47.226;39.702;2022-07-04T05:17:02;14.55;;;6.10;;
52650;SDS011;38537;47.226;39.702;2022-07-04T05:19:29;8.70;;;5.65;;
52650;SDS011;38537;47.226;39.702;2022-07-04T05:21:56;10.40;;;5.90;;
52650;SDS011;38537;47.226;39.702;2022-07-04T05:24:24;8.30;;;5.70;;
52650;SDS011;38537;47.226;39.702;2022-07-04T05:26:51;7.57;;;5.75;;
52650;SDS011;38537;47.226;39.702;2022-07-04T05:29:24;8.75;;;6.30;;
52650;SDS011;38537;47.226;39.702;2022-07-04T05:31:51;8.68;;;5.80;;
52650;SDS011;38537;47.226;39.702;2022-07-04T05:34:18;11.55;;;5.43;;
52650;SDS011;38537;47.226;39.702;2022-07-04T05:36:45;9.55;;;5.40;;
52650;SDS011;38537;47.226;39.702;2022-07-04T05:39:13;9.25;;;5.40;;
52650;SDS011;38537;47.226;39.702;2022-07-04T05:41:40;6.95;;;5.13;;
52650;SDS011;38537;47.226;39.702;2022-07-04T05:44:08;8.30;;;5.47;;
52650;SDS011;38537;47.226;39.702;2022-07-04T05:46:35;7.32;;;4.88;;
52650;SDS011;38537;47.226;39.702;2022-07-04T05:49:02;7.35;;;5.00;;
52650;SDS011;38537;47.226;39.702;2022-07-04T05:51:30;5.97;;;4.80;;
52650;SDS011;38537;47.226;39.702;2022-07-04T05:53:57;8.93;;;4.78;;
52650;SDS011;38537;47.226;39.702;2022-07-04T05:56:24;7.93;;;5.13;;
52650;SDS011;38537;47.226;39.702;2022-07-04T05:58:52;5.50;;;4.90;;
52650;SDS011;38537;47.226;39.702;2022-07-04T06:01:19;5.78;;;4.53;;
52650;SDS011;38537;47.226;39.702;2022-07-04T06:03:47;5.93;;;5.07;;
52650;SDS011;38537;47.226;39.702;2022-07-04T06:06:14;9.90;;;4.72;;
52650;SDS011;38537;47.226;39.702;2022-07-04T06:08:43;6.93;;;4.75;;
52650;SDS011;38537;47.226;39.702;2022-07-04T06:11:10;8.77;;;4.75;;
52650;SDS011;38537;47.226;39.702;2022-07-04T06:13:38;8.98;;;5.05;;
52650;SDS011;38537;47.226;39.702;2022-07-04T06:16:05;8.75;;;4.97;;
52650;SDS011;38537;47.226;39.702;2022-07-04T06:18:33;6.18;;;5.03;;
52650;SDS011;38537;47.226;39.702;2022-07-04T06:21:00;6.43;;;5.40;;
52650;SDS011;38537;47.226;39.702;2022-07-04T06:23:28;8.50;;;5.10;;
52650;SDS011;38537;47.226;39.702;2022-07-04T06:25:55;6.25;;;4.40;;
52650;SDS011;38537;47.226;39.702;2022-07-04T06:28:22;5.47;;;4.95;;
52650;SDS011;38537;47.226;39.702;2022-07-04T06:31:13;9.50;;;4.97;;
52650;SDS011;38537;47.226;39.702;2022-07-04T06:33:41;7.32;;;4.70;;
52650;SDS011;38537;47.226;39.702;2022-07-04T06:36:28;9.13;;;5.00;;
52650;SDS011;38537;47.226;39.702;2022-07-04T06:38:55;12.45;;;5.15;;
52650;SDS011;38537;47.226;39.702;2022-07-04T06:41:22;7.28;;;5.10;;
52650;SDS011;38537;47.226;39.702;2022-07-04T06:43:49;6.05;;;5.25;;
52650;SDS011;38537;47.226;39.702;2022-07-04T06:46:17;5.63;;;5.10;;
52650;SDS011;38537;47.226;39.702;2022-07-04T06:48:44;12.27;;;6.00;;
52650;SDS011;38537;47.226;39.702;2022-07-04T06:51:11;6.18;;;5.20;;
52650;SDS011;38537;47.226;39.702;2022-07-04T06:53:43;6.95;;;5.20;;
52650;SDS011;38537;47.226;39.702;2022-07-04T06:56:12;6.95;;;4.60;;
52650;SDS011;38537;47.226;39.702;2022-07-04T06:58:40;6.88;;;4.93;;
52650;SDS011;38537;47.226;39.702;2022-07-04T07:01:07;8.43;;;5.18;;
52650;SDS011;38537;47.226;39.702;2022-07-04T07:03:37;6.13;;;4.88;;
52650;SDS011;38537;47.226;39.702;2022-07-04T07:06:04;9.25;;;4.78;;
52650;SDS011;38537;47.226;39.702;2022-07-04T07:08:32;5.20;;;4.68;;
52650;SDS011;38537;47.226;39.702;2022-07-04T07:10:59;6.38;;;4.70;;
52650;SDS011;38537;47.226;39.702;2022-07-04T07:13:42;7.38;;;4.53;;
52650;SDS011;38537;47.226;39.702;2022-07-04T07:16:11;11.95;;;5.38;;
52650;SDS011;38537;47.226;39.702;2022-07-04T07:18:39;8.65;;;5.13;;
52650;SDS011;38537;47.226;39.702;2022-07-04T07:21:07;8.73;;;4.95;;
52650;SDS011;38537;47.226;39.702;2022-07-04T07:23:39;7.97;;;4.55;;
52650;SDS011;38537;47.226;39.702;2022-07-04T07:26:08;6.38;;;4.70;;
52650;SDS011;38537;47.226;39.702;2022-07-04T07:28:36;4.95;;;4.45;;
52650;SDS011;38537;47.226;39.702;2022-07-04T07:31:03;4.50;;;4.05;;
52650;SDS011;38537;47.226;39.702;2022-07-04T07:33:31;5.63;;;4.13;;
52650;SDS011;38537;47.226;39.702;2022-07-04T07:35:58;5.60;;;4.05;;
52650;SDS011;38537;47.226;39.702;2022-07-04T07:38:25;7.80;;;4.60;;
52650;SDS011;38537;47.226;39.702;2022-07-04T07:40:52;6.30;;;4.10;;
52650;SDS011;38537;47.226;39.702;2022-07-04T07:43:20;6.97;;;4.55;;
52650;SDS011;38537;47.226;39.702;2022-07-04T07:45:49;6.97;;;5.05;;
52650;SDS011;38537;47.226;39.702;2022-07-04T07:48:16;9.07;;;4.75;;
52650;SDS011;38537;47.226;39.702;2022-07-04T07:50:43;7.03;;;4.50;;
52650;SDS011;38537;47.226;39.702;2022-07-04T07:53:11;6.90;;;4.53;;
52650;SDS011;38537;47.226;39.702;2022-07-04T07:55:38;9.60;;;4.63;;
52650;SDS011;38537;47.226;39.702;2022-07-04T07:58:07;4.72;;;4.20;;
52650;SDS011;38537;47.226;39.702;2022-07-04T08:00:34;5.03;;;4.00;;
52650;SDS011;38537;47.226;39.702;2022-07-04T08:03:21;7.10;;;4.68;;
52650;SDS011;38537;47.226;39.702;2022-07-04T08:06:07;7.90;;;4.45;;
52650;SDS011;38537;47.226;39.702;2022-07-04T08:08:35;4.65;;;3.97;;
52650;SDS011;38537;47.226;39.702;2022-07-04T08:11:03;7.85;;;4.43;;
52650;SDS011;38537;47.226;39.702;2022-07-04T08:13:32;5.72;;;4.50;;
52650;SDS011;38537;47.226;39.702;2022-07-04T08:16:00;4.53;;;4.13;;
52650;SDS011;38537;47.226;39.702;2022-07-04T08:18:28;5.20;;;4.35;;
52650;SDS011;38537;47.226;39.702;2022-07-04T08:20:55;6.07;;;4.45;;
52650;SDS011;38537;47.226;39.702;2022-07-04T08:23:28;5.85;;;4.15;;
52650;SDS011;38537;47.226;39.702;2022-07-04T08:25:58;4.57;;;3.90;;
52650;SDS011;38537;47.226;39.702;2022-07-04T08:28:26;5.28;;;4.30;;
52650;SDS011;38537;47.226;39.702;2022-07-04T08:30:55;4.78;;;4.38;;
52650;SDS011;38537;47.226;39.702;2022-07-04T08:33:23;7.15;;;4.30;;
52650;SDS011;38537;47.226;39.702;2022-07-04T08:35:51;4.90;;;4.20;;
52650;SDS011;38537;47.226;39.702;2022-07-04T08:38:20;5.05;;;4.20;;
52650;SDS011;38537;47.226;39.702;2022-07-04T08:40:48;11.25;;;4.93;;
52650;SDS011;38537;47.226;39.702;2022-07-04T08:43:17;5.50;;;4.68;;
52650;SDS011;38537;47.226;39.702;2022-07-04T08:45:50;5.80;;;4.40;;
52650;SDS011;38537;47.226;39.702;2022-07-04T08:48:40;5.95;;;4.60;;
52650;SDS011;38537;47.226;39.702;2022-07-04T08:51:13;6.15;;;4.75;;
52650;SDS011;38537;47.226;39.702;2022-07-04T08:53:52;9.98;;;4.95;;
52650;SDS011;38537;47.226;39.702;2022-07-04T08:56:24;6.57;;;5.00;;
52650;SDS011;38537;47.226;39.702;2022-07-04T08:59:10;7.00;;;4.75;;
52650;SDS011;38537;47.226;39.702;2022-07-04T09:01:40;9.30;;;5.13;;
52650;SDS011;38537;47.226;39.702;2022-07-04T09:04:09;5.88;;;4.65;;
52650;SDS011;38537;47.226;39.702;2022-07-04T09:06:38;6.75;;;4.93;;
52650;SDS011;38537;47.226;39.702;2022-07-04T09:09:07;11.18;;;5.35;;
52650;SDS011;38537;47.226;39.702;2022-07-04T09:11:35;7.50;;;4.85;;
52650;SDS011;38537;47.226;39.702;2022-07-04T09:14:02;5.70;;;4.50;;
52650;SDS011;38537;47.226;39.702;2022-07-04T09:16:30;5.97;;;5.38;;
52650;SDS011;38537;47.226;39.702;2022-07-04T09:18:58;12.35;;;5.45;;
52650;SDS011;38537;47.226;39.702;2022-07-04T09:21:42;8.13;;;5.40;;
52650;SDS011;38537;47.226;39.702;2022-07-04T09:24:13;5.35;;;4.85;;
52650;SDS011;38537;47.226;39.702;2022-07-04T09:26:41;6.22;;;5.43;;
52650;SDS011;38537;47.226;39.702;2022-07-04T09:29:11;6.63;;;5.22;;
52650;SDS011;38537;47.226;39.702;2022-07-04T09:31:40;8.50;;;5.57;;
52650;SDS011;38537;47.226;39.702;2022-07-04T09:34:08;11.38;;;5.47;;
52650;SDS011;38537;47.226;39.702;2022-07-04T09:36:39;8.80;;;5.63;;
52650;SDS011;38537;47.226;39.702;2022-07-04T09:39:18;6.55;;;5.72;;
52650;SDS011;38537;47.226;39.702;2022-07-04T09:41:55;7.70;;;5.07;;
52650;SDS011;38537;47.226;39.702;2022-07-04T09:44:26;7.65;;;5.20;;
52650;SDS011;38537;47.226;39.702;2022-07-04T09:46:55;5.72;;;4.60;;
52650;SDS011;38537;47.226;39.702;2022-07-04T09:49:26;7.55;;;4.90;;
52650;SDS011;38537;47.226;39.702;2022-07-04T09:51:53;7.38;;;5.05;;
52650;SDS011;38537;47.226;39.702;2022-07-04T09:54:22;7.90;;;5.25;;
52650;SDS011;38537;47.226;39.702;2022-07-04T09:56:58;7.95;;;5.00;;
52650;SDS011;38537;47.226;39.702;2022-07-04T09:59:27;9.70;;;5.30;;
52650;SDS011;38537;47.226;39.702;2022-07-04T10:02:08;9.40;;;6.35;;
52650;SDS011;38537;47.226;39.702;2022-07-04T10:04:41;9.75;;;6.13;;
52650;SDS011;38537;47.226;39.702;2022-07-04T10:10:33;8.95;;;6.78;;
52650;SDS011;38537;47.226;39.702;2022-07-04T10:13:05;9.20;;;6.15;;
52650;SDS011;38537;47.226;39.702;2022-07-04T10:15:36;10.27;;;6.60;;
52650;SDS011;38537;47.226;39.702;2022-07-04T10:18:08;8.57;;;6.35;;
52650;SDS011;38537;47.226;39.702;2022-07-04T10:20:37;9.18;;;6.45;;
52650;SDS011;38537;47.226;39.702;2022-07-04T10:23:04;8.85;;;6.30;;
52650;SDS011;38537;47.226;39.702;2022-07-04T10:25:32;11.32;;;6.78;;
52650;SDS011;38537;47.226;39.702;2022-07-04T10:28:00;9.68;;;6.75;;
52650;SDS011;38537;47.226;39.702;2022-07-04T10:30:28;8.30;;;6.22;;
52650;SDS011;38537;47.226;39.702;2022-07-04T10:33:06;11.70;;;6.70;;
52650;SDS011;38537;47.226;39.702;2022-07-04T10:35:54;10.55;;;6.65;;
52650;SDS011;38537;47.226;39.702;2022-07-04T10:38:29;9.88;;;6.15;;
52650;SDS011;38537;47.226;39.702;2022-07-04T10:40:58;7.63;;;6.03;;
52650;SDS011;38537;47.226;39.702;2022-07-04T10:48:34;8.98;;;6.43;;
52650;SDS011;38537;47.226;39.702;2022-07-04T10:51:05;8.32;;;6.53;;
52650;SDS011;38537;47.226;39.702;2022-07-04T10:56:51;10.18;;;6.05;;
52650;SDS011;38537;47.226;39.702;2022-07-04T11:02:38;7.88;;;6.20;;
52650;SDS011;38537;47.226;39.702;2022-07-04T11:04:54;7.72;;;6.32;;
52650;SDS011;38537;47.226;39.702;2022-07-04T11:18:04;12.40;;;6.15;;
52650;SDS011;38537;47.226;39.702;2022-07-04T11:20:36;8.15;;;6.10;;
52650;SDS011;38537;47.226;39.702;2022-07-04T11:23:07;7.95;;;6.07;;
52650;SDS011;38537;47.226;39.702;2022-07-04T11:25:36;11.30;;;6.55;;
52650;SDS011;38537;47.226;39.702;2022-07-04T11:28:27;10.90;;;6.82;;
52650;SDS011;38537;47.226;39.702;2022-07-04T11:31:13;8.93;;;6.57;;
52650;SDS011;38537;47.226;39.702;2022-07-04T11:33:42;10.65;;;7.07;;
52650;SDS011;38537;47.226;39.702;2022-07-04T11:36:14;8.30;;;7.35;;
52650;SDS011;38537;47.226;39.702;2022-07-04T11:38:50;10.10;;;6.90;;
52650;SDS011;38537;47.226;39.702;2022-07-04T11:41:25;9.35;;;6.93;;
52650;SDS011;38537;47.226;39.702;2022-07-04T11:44:15;8.75;;;7.00;;
52650;SDS011;38537;47.226;39.702;2022-07-04T11:49:52;11.45;;;6.90;;
52650;SDS011;38537;47.226;39.702;2022-07-04T11:52:22;8.93;;;6.80;;
52650;SDS011;38537;47.226;39.702;2022-07-04T11:55:17;10.18;;;6.50;;
52650;SDS011;38537;47.226;39.702;2022-07-04T11:57:46;10.75;;;6.45;;
52650;SDS011;38537;47.226;39.702;2022-07-04T12:00:15;8.93;;;6.20;;
52650;SDS011;38537;47.226;39.702;2022-07-04T12:02:48;7.68;;;6.28;;
52650;SDS011;38537;47.226;39.702;2022-07-04T12:05:16;7.50;;;6.40;;
52650;SDS011;38537;47.226;39.702;2022-07-04T12:07:45;8.68;;;6.68;;
52650;SDS011;38537;47.226;39.702;2022-07-04T12:10:34;8.10;;;6.50;;
52650;SDS011;38537;47.226;39.702;2022-07-04T12:13:03;7.35;;;6.18;;
52650;SDS011;38537;47.226;39.702;2022-07-04T12:18:05;9.50;;;6.35;;
52650;SDS011;38537;47.226;39.702;2022-07-04T12:20:48;8.07;;;6.43;;
52650;SDS011;38537;47.226;39.702;2022-07-04T12:23:21;10.00;;;6.53;;
52650;SDS011;38537;47.226;39.702;2022-07-04T12:25:55;12.43;;;6.43;;
52650;SDS011;38537;47.226;39.702;2022-07-04T12:28:23;12.25;;;6.68;;
52650;SDS011;38537;47.226;39.702;2022-07-04T12:30:53;11.45;;;6.80;;
52650;SDS011;38537;47.226;39.702;2022-07-04T12:33:23;10.18;;;7.00;;
52650;SDS011;38537;47.226;39.702;2022-07-04T12:36:01;9.55;;;6.97;;
52650;SDS011;38537;47.226;39.702;2022-07-04T12:41:04;10.93;;;6.65;;
52650;SDS011;38537;47.226;39.702;2022-07-04T12:46:11;9.55;;;6.47;;
52650;SDS011;38537;47.226;39.702;2022-07-04T12:48:41;8.95;;;6.20;;
52650;SDS011;38537;47.226;39.702;2022-07-04T12:51:30;8.45;;;6.00;;
52650;SDS011;38537;47.226;39.702;2022-07-04T12:54:09;8.57;;;6.20;;
52650;SDS011;38537;47.226;39.702;2022-07-04T12:56:39;11.75;;;6.70;;
52650;SDS011;38537;47.226;39.702;2022-07-04T12:59:11;14.07;;;6.63;;
52650;SDS011;38537;47.226;39.702;2022-07-04T13:01:41;12.60;;;6.70;;
52650;SDS011;38537;47.226;39.702;2022-07-04T13:04:10;8.95;;;6.10;;
52650;SDS011;38537;47.226;39.702;2022-07-04T13:06:38;9.38;;;5.65;;
52650;SDS011;38537;47.226;39.702;2022-07-04T13:09:06;7.68;;;6.30;;
52650;SDS011;38537;47.226;39.702;2022-07-04T13:11:37;9.50;;;6.32;;
52650;SDS011;38537;47.226;39.702;2022-07-04T13:14:23;12.73;;;6.30;;
52650;SDS011;38537;47.226;39.702;2022-07-04T13:16:50;8.48;;;6.05;;
52650;SDS011;38537;47.226;39.702;2022-07-04T13:19:18;9.57;;;6.47;;
52650;SDS011;38537;47.226;39.702;2022-07-04T13:21:46;10.23;;;6.60;;
52650;SDS011;38537;47.226;39.702;2022-07-04T13:24:17;11.73;;;6.93;;
52650;SDS011;38537;47.226;39.702;2022-07-04T13:26:44;7.45;;;6.30;;
52650;SDS011;38537;47.226;39.702;2022-07-04T13:29:11;9.32;;;5.82;;
52650;SDS011;38537;47.226;39.702;2022-07-04T13:31:40;8.32;;;6.20;;
52650;SDS011;38537;47.226;39.702;2022-07-04T13:34:08;9.40;;;6.22;;
52650;SDS011;38537;47.226;39.702;2022-07-04T13:36:36;9.25;;;6.20;;
52650;SDS011;38537;47.226;39.702;2022-07-04T13:39:03;10.82;;;5.88;;
52650;SDS011;38537;47.226;39.702;2022-07-04T13:41:32;7.00;;;5.80;;
52650;SDS011;38537;47.226;39.702;2022-07-04T13:44:04;9.60;;;5.85;;
52650;SDS011;38537;47.226;39.702;2022-07-04T13:46:33;11.18;;;6.10;;
52650;SDS011;38537;47.226;39.702;2022-07-04T13:49:04;11.10;;;5.47;;
52650;SDS011;38537;47.226;39.702;2022-07-04T13:51:39;8.43;;;5.60;;
52650;SDS011;38537;47.226;39.702;2022-07-04T13:54:08;7.63;;;5.63;;
52650;SDS011;38537;47.226;39.702;2022-07-04T13:56:36;7.63;;;5.68;;
52650;SDS011;38537;47.226;39.702;2022-07-04T13:59:04;7.20;;;5.80;;
52650;SDS011;38537;47.226;39.702;2022-07-04T14:01:31;8.43;;;5.72;;
52650;SDS011;38537;47.226;39.702;2022-07-04T14:03:59;6.50;;;5.45;;
52650;SDS011;38537;47.226;39.702;2022-07-04T14:06:26;12.73;;;5.60;;
52650;SDS011;38537;47.226;39.702;2022-07-04T14:08:53;8.45;;;5.47;;
52650;SDS011;38537;47.226;39.702;2022-07-04T14:11:21;10.68;;;5.72;;
52650;SDS011;38537;47.226;39.702;2022-07-04T14:13:48;7.43;;;5.45;;
52650;SDS011;38537;47.226;39.702;2022-07-04T14:16:15;8.32;;;4.97;;
52650;SDS011;38537;47.226;39.702;2022-07-04T14:18:43;7.13;;;5.10;;
52650;SDS011;38537;47.226;39.702;2022-07-04T14:21:10;8.80;;;5.00;;
52650;SDS011;38537;47.226;39.702;2022-07-04T14:23:38;6.15;;;4.80;;
52650;SDS011;38537;47.226;39.702;2022-07-04T14:26:08;7.00;;;5.15;;
52650;SDS011;38537;47.226;39.702;2022-07-04T14:28:38;10.27;;;5.05;;
52650;SDS011;38537;47.226;39.702;2022-07-04T14:31:05;7.25;;;5.28;;
52650;SDS011;38537;47.226;39.702;2022-07-04T14:33:32;8.25;;;5.45;;
52650;SDS011;38537;47.226;39.702;2022-07-04T14:36:01;11.35;;;5.85;;
52650;SDS011;38537;47.226;39.702;2022-07-04T14:38:30;6.65;;;5.03;;
52650;SDS011;38537;47.226;39.702;2022-07-04T14:40:58;4.75;;;4.35;;
52650;SDS011;38537;47.226;39.702;2022-07-04T14:43:41;8.23;;;5.25;;
52650;SDS011;38537;47.226;39.702;2022-07-04T14:46:10;8.27;;;4.80;;
52650;SDS011;38537;47.226;39.702;2022-07-04T14:48:41;7.10;;;5.32;;
52650;SDS011;38537;47.226;39.702;2022-07-04T14:51:08;7.03;;;5.40;;
52650;SDS011;38537;47.226;39.702;2022-07-04T14:53:35;7.18;;;5.50;;
52650;SDS011;38537;47.226;39.702;2022-07-04T14:56:03;10.48;;;5.57;;
52650;SDS011;38537;47.226;39.702;2022-07-04T14:58:31;8.32;;;5.57;;
52650;SDS011;38537;47.226;39.702;2022-07-04T15:01:00;9.13;;;6.10;;
52650;SDS011;38537;47.226;39.702;2022-07-04T15:03:28;7.50;;;5.78;;
52650;SDS011;38537;47.226;39.702;2022-07-04T15:05:56;11.40;;;5.85;;
52650;SDS011;38537;47.226;39.702;2022-07-04T15:08:23;9.63;;;5.70;;
52650;SDS011;38537;47.226;39.702;2022-07-04T15:10:51;7.72;;;6.05;;
52650;SDS011;38537;47.226;39.702;2022-07-04T15:13:26;9.75;;;6.22;;
52650;SDS011;38537;47.226;39.702;2022-07-04T15:15:55;9.45;;;6.03;;
52650;SDS011;38537;47.226;39.702;2022-07-04T15:18:43;7.95;;;6.07;;